createdAt,value
2018-09-22T00:00:14.364Z,0.00
2018-09-22T00:01:14.287Z,0.00
2018-09-22T00:02:14.212Z,0.00
2018-09-22T00:03:14.145Z,0.00
2018-09-22T00:04:14.062Z,0.00
2018-09-22T00:05:13.990Z,0.00
2018-09-22T00:06:13.914Z,0.00
2018-09-22T00:07:13.840Z,0.00
2018-09-22T00:08:13.766Z,0.00
2018-09-22T00:09:13.691Z,0.00
2018-09-22T00:10:13.619Z,0.00
2018-09-22T00:11:13.548Z,0.00
2018-09-22T00:12:13.469Z,0.00
2018-09-22T00:13:13.394Z,0.00
2018-09-22T00:14:13.316Z,0.00
2018-09-22T00:15:13.247Z,0.00
2018-09-22T00:16:13.169Z,0.00
2018-09-22T00:17:13.103Z,0.00
2018-09-22T00:18:13.025Z,0.00
2018-09-22T00:19:12.948Z,0.00
2018-09-22T00:20:12.881Z,0.00
2018-09-22T00:21:12.797Z,0.00
2018-09-22T00:22:12.723Z,0.00
2018-09-22T00:23:12.649Z,0.00
2018-09-22T00:24:12.576Z,0.00
2018-09-22T00:25:12.503Z,0.00
2018-09-22T00:26:12.425Z,0.00
2018-09-22T00:27:12.386Z,0.00
2018-09-22T00:28:12.283Z,0.00
2018-09-22T00:29:12.203Z,0.00
2018-09-22T00:30:12.126Z,0.00
2018-09-22T00:31:12.060Z,0.00
2018-09-22T00:32:11.984Z,0.00
2018-09-22T00:33:11.904Z,0.00
2018-09-22T00:34:11.831Z,0.00
2018-09-22T00:35:11.757Z,0.00
2018-09-22T00:36:11.682Z,0.00
2018-09-22T00:37:11.604Z,0.00
2018-09-22T00:38:11.533Z,0.00
2018-09-22T00:39:11.456Z,0.00
2018-09-22T00:40:11.381Z,0.00
2018-09-22T00:41:11.309Z,0.00
2018-09-22T00:42:11.227Z,0.00
2018-09-22T00:43:11.157Z,0.00
2018-09-22T00:44:11.089Z,0.00
2018-09-22T00:45:11.011Z,0.00
2018-09-22T00:46:10.935Z,0.00
2018-09-22T00:47:10.861Z,0.00
2018-09-22T00:48:10.785Z,0.00
2018-09-22T00:49:10.712Z,0.00
2018-09-22T00:50:10.637Z,0.00
2018-09-22T00:51:10.561Z,0.00
2018-09-22T00:52:10.486Z,0.00
2018-09-22T00:53:10.414Z,0.00
2018-09-22T00:54:10.341Z,0.00
2018-09-22T00:55:10.263Z,0.00
2018-09-22T00:56:10.189Z,0.00
2018-09-22T00:57:10.116Z,0.00
2018-09-22T00:58:10.041Z,0.00
2018-09-22T00:59:09.969Z,0.00
2018-09-22T01:00:09.892Z,0.00
2018-09-22T01:01:09.816Z,0.00
2018-09-22T01:02:09.741Z,0.00
2018-09-22T01:03:09.672Z,0.00
2018-09-22T01:04:09.594Z,0.00
2018-09-22T01:05:09.520Z,0.00
2018-09-22T01:06:09.450Z,0.00
2018-09-22T01:07:09.368Z,0.00
2018-09-22T01:08:09.299Z,0.00
2018-09-22T01:09:09.222Z,0.00
2018-09-22T01:10:09.146Z,0.00
2018-09-22T01:11:09.075Z,0.00
2018-09-22T01:12:08.997Z,0.00
2018-09-22T01:13:08.923Z,0.00
2018-09-22T01:14:08.848Z,0.00
2018-09-22T01:15:08.775Z,0.00
2018-09-22T01:16:08.703Z,0.00
2018-09-22T01:17:08.627Z,0.00
2018-09-22T01:18:08.548Z,0.00
2018-09-22T01:19:08.475Z,0.00
2018-09-22T01:20:08.401Z,0.00
2018-09-22T01:21:08.326Z,0.00
2018-09-22T01:22:08.253Z,0.00
2018-09-22T01:23:08.175Z,0.00
2018-09-22T01:24:08.105Z,0.00
2018-09-22T01:25:08.028Z,0.00
2018-09-22T01:26:07.950Z,0.00
2018-09-22T01:27:07.879Z,0.00
2018-09-22T01:28:07.806Z,0.00
2018-09-22T01:29:07.732Z,0.00
2018-09-22T01:30:07.654Z,0.00
2018-09-22T01:31:07.579Z,0.00
2018-09-22T01:32:07.513Z,0.00
2018-09-22T01:33:07.432Z,0.00
2018-09-22T01:34:07.356Z,0.00
2018-09-22T01:35:07.288Z,0.00
2018-09-22T01:36:07.205Z,0.00
2018-09-22T01:37:07.137Z,0.00
2018-09-22T01:38:07.059Z,0.00
2018-09-22T01:39:06.985Z,0.00
2018-09-22T01:40:06.915Z,0.00
2018-09-22T01:41:06.835Z,0.00
2018-09-22T01:42:06.760Z,0.00
2018-09-22T01:43:06.682Z,0.00
2018-09-22T01:44:06.616Z,0.00
2018-09-22T01:45:06.535Z,0.00
2018-09-22T01:46:06.467Z,0.00
2018-09-22T01:47:06.389Z,0.00
2018-09-22T01:48:06.325Z,0.00
2018-09-22T01:49:06.238Z,0.00
2018-09-22T01:50:06.238Z,0.00
2018-09-22T01:51:06.091Z,0.00
2018-09-22T01:52:06.017Z,0.00
2018-09-22T01:53:05.941Z,0.00
2018-09-22T01:54:05.865Z,0.00
2018-09-22T01:55:05.788Z,0.00
2018-09-22T01:56:05.716Z,0.00
2018-09-22T01:57:05.641Z,0.00
2018-09-22T01:58:05.567Z,0.00
2018-09-22T01:59:05.493Z,0.00
2018-09-22T02:00:05.417Z,0.00
2018-09-22T02:01:05.347Z,0.00
2018-09-22T02:02:05.271Z,0.00
2018-09-22T02:03:05.199Z,0.00
2018-09-22T02:04:05.120Z,0.00
2018-09-22T02:05:05.044Z,0.00
2018-09-22T02:06:04.971Z,0.00
2018-09-22T02:07:04.897Z,0.00
2018-09-22T02:08:04.820Z,0.00
2018-09-22T02:09:04.745Z,0.00
2018-09-22T02:10:04.671Z,0.00
2018-09-22T02:11:04.596Z,0.00
2018-09-22T02:12:04.523Z,0.00
2018-09-22T02:13:04.448Z,0.00
2018-09-22T02:14:04.382Z,0.00
2018-09-22T02:15:04.298Z,0.00
2018-09-22T02:16:04.230Z,0.00
2018-09-22T02:17:04.148Z,0.00
2018-09-22T02:18:04.074Z,0.00
2018-09-22T02:19:04.000Z,0.00
2018-09-22T02:20:03.926Z,0.00
2018-09-22T02:21:03.850Z,0.00
2018-09-22T02:22:03.779Z,0.00
2018-09-22T02:23:03.702Z,0.00
2018-09-22T02:24:03.628Z,0.00
2018-09-22T02:25:03.554Z,0.00
2018-09-22T02:26:03.479Z,0.00
2018-09-22T02:27:03.398Z,0.00
2018-09-22T02:28:03.332Z,0.00
2018-09-22T02:29:03.252Z,0.00
2018-09-22T02:30:03.184Z,0.00
2018-09-22T02:31:03.105Z,0.00
2018-09-22T02:32:03.030Z,0.00
2018-09-22T02:33:02.952Z,0.00
2018-09-22T02:34:02.883Z,0.00
2018-09-22T02:35:02.819Z,0.00
2018-09-22T02:36:02.739Z,0.00
2018-09-22T02:37:02.658Z,0.00
2018-09-22T02:38:02.582Z,0.00
2018-09-22T02:39:02.509Z,0.00
2018-09-22T02:40:02.433Z,0.00
2018-09-22T02:41:02.361Z,0.00
2018-09-22T02:42:02.283Z,0.00
2018-09-22T02:43:02.210Z,0.00
2018-09-22T02:44:02.134Z,0.00
2018-09-22T02:45:02.065Z,0.00
2018-09-22T02:46:01.984Z,0.00
2018-09-22T02:47:01.910Z,0.00
2018-09-22T02:48:01.834Z,0.00
2018-09-22T02:49:01.759Z,0.00
2018-09-22T02:50:01.687Z,0.00
2018-09-22T02:51:01.611Z,0.00
2018-09-22T02:52:01.545Z,0.00
2018-09-22T02:53:01.462Z,0.00
2018-09-22T02:54:01.388Z,0.00
2018-09-22T02:55:01.314Z,0.00
2018-09-22T02:56:01.243Z,0.00
2018-09-22T02:57:01.167Z,0.00
2018-09-22T02:58:01.092Z,0.00
2018-09-22T02:59:01.016Z,0.00
2018-09-22T03:00:00.940Z,0.00
2018-09-22T03:01:00.864Z,0.00
2018-09-22T03:02:00.791Z,0.00
2018-09-22T03:03:00.716Z,0.00
2018-09-22T03:04:00.642Z,0.00
2018-09-22T03:05:00.566Z,0.00
2018-09-22T03:06:00.490Z,0.00
2018-09-22T03:07:00.416Z,0.00
2018-09-22T03:08:00.345Z,0.00
2018-09-22T03:09:00.267Z,0.00
2018-09-22T03:10:00.204Z,0.00
2018-09-22T03:11:00.114Z,0.00
2018-09-22T03:12:00.042Z,0.00
2018-09-22T03:12:59.968Z,0.00
2018-09-22T03:13:59.892Z,0.00
2018-09-22T03:14:59.817Z,0.00
2018-09-22T03:15:59.741Z,0.00
2018-09-22T03:16:59.667Z,0.00
2018-09-22T03:17:59.592Z,0.00
2018-09-22T03:18:59.517Z,0.00
2018-09-22T03:19:59.443Z,0.00
2018-09-22T03:20:59.367Z,0.00
2018-09-22T03:21:59.294Z,0.00
2018-09-22T03:22:59.218Z,0.00
2018-09-22T03:23:59.145Z,0.00
2018-09-22T03:24:59.067Z,0.00
2018-09-22T03:25:58.996Z,0.00
2018-09-22T03:26:58.917Z,0.00
2018-09-22T03:27:58.843Z,0.00
2018-09-22T03:28:58.772Z,0.00
2018-09-22T03:29:58.694Z,0.00
2018-09-22T03:30:58.618Z,0.00
2018-09-22T03:31:58.550Z,0.00
2018-09-22T03:32:58.468Z,0.00
2018-09-22T03:33:58.404Z,0.00
2018-09-22T03:34:58.321Z,0.00
2018-09-22T03:35:58.252Z,0.00
2018-09-22T03:36:58.164Z,0.00
2018-09-22T03:37:58.096Z,0.00
2018-09-22T03:38:58.018Z,0.00
2018-09-22T03:39:57.944Z,0.00
2018-09-22T03:40:57.872Z,0.00
2018-09-22T03:41:57.797Z,0.00
2018-09-22T03:42:57.725Z,0.00
2018-09-22T03:43:57.643Z,0.00
2018-09-22T03:44:57.568Z,0.00
2018-09-22T03:45:57.496Z,0.00
2018-09-22T03:46:57.418Z,0.00
2018-09-22T03:47:57.346Z,0.00
2018-09-22T03:48:57.270Z,0.00
2018-09-22T03:49:57.193Z,0.00
2018-09-22T03:50:57.121Z,0.00
2018-09-22T03:51:57.044Z,0.00
2018-09-22T03:52:56.969Z,0.00
2018-09-22T03:53:56.896Z,0.00
2018-09-22T03:54:56.820Z,0.00
2018-09-22T03:55:56.744Z,0.00
2018-09-22T03:56:56.669Z,0.00
2018-09-22T03:57:56.595Z,0.00
2018-09-22T03:58:56.519Z,0.00
2018-09-22T03:59:56.449Z,0.00
2018-09-22T04:00:56.368Z,0.00
2018-09-22T04:01:56.294Z,0.00
2018-09-22T04:02:56.220Z,0.00
2018-09-22T04:03:56.144Z,0.00
2018-09-22T04:04:56.070Z,0.00
2018-09-22T04:05:55.995Z,0.00
2018-09-22T04:06:55.920Z,0.00
2018-09-22T04:07:55.881Z,0.00
2018-09-22T04:08:55.768Z,0.00
2018-09-22T04:09:55.695Z,0.00
2018-09-22T04:10:55.623Z,0.00
2018-09-22T04:11:55.545Z,0.00
2018-09-22T04:12:55.472Z,0.00
2018-09-22T04:13:55.394Z,0.00
2018-09-22T04:14:55.319Z,0.00
2018-09-22T04:15:55.245Z,0.00
2018-09-22T04:16:55.172Z,0.00
2018-09-22T04:17:55.095Z,0.00
2018-09-22T04:18:55.019Z,0.00
2018-09-22T04:19:54.950Z,0.00
2018-09-22T04:20:54.868Z,0.00
2018-09-22T04:21:54.793Z,0.00
2018-09-22T04:22:54.719Z,0.00
2018-09-22T04:23:54.646Z,0.00
2018-09-22T04:24:54.569Z,0.00
2018-09-22T04:25:54.494Z,0.00
2018-09-22T04:26:54.419Z,0.00
2018-09-22T04:27:54.344Z,0.00
2018-09-22T04:28:54.269Z,0.00
2018-09-22T04:29:54.195Z,0.00
2018-09-22T04:30:54.121Z,0.00
2018-09-22T04:31:54.043Z,0.00
2018-09-22T04:32:53.968Z,0.00
2018-09-22T04:33:53.893Z,0.00
2018-09-22T04:34:53.821Z,0.00
2018-09-22T04:35:53.741Z,0.00
2018-09-22T04:36:53.668Z,0.00
2018-09-22T04:37:53.593Z,0.00
2018-09-22T04:38:53.517Z,0.00
2018-09-22T04:39:53.447Z,0.00
2018-09-22T04:40:53.369Z,0.00
2018-09-22T04:41:53.297Z,0.00
2018-09-22T04:42:53.218Z,0.00
2018-09-22T04:43:53.143Z,0.00
2018-09-22T04:44:53.063Z,0.00
2018-09-22T04:45:52.994Z,0.00
2018-09-22T04:46:52.921Z,0.00
2018-09-22T04:47:52.839Z,0.00
2018-09-22T04:48:52.768Z,0.00
2018-09-22T04:49:52.693Z,0.00
2018-09-22T04:50:52.618Z,0.00
2018-09-22T04:51:52.543Z,0.00
2018-09-22T04:52:52.467Z,4.00
2018-09-22T04:53:52.394Z,0.00
2018-09-22T04:54:52.317Z,4.00
2018-09-22T04:55:52.247Z,4.00
2018-09-22T04:56:52.166Z,4.00
2018-09-22T04:57:52.092Z,4.00
2018-09-22T04:58:52.019Z,4.00
2018-09-22T04:59:51.941Z,4.00
2018-09-22T05:00:51.866Z,8.00
2018-09-22T05:01:51.791Z,8.00
2018-09-22T05:02:51.716Z,12.00
2018-09-22T05:03:51.644Z,12.00
2018-09-22T05:04:51.564Z,16.00
2018-09-22T05:05:51.492Z,16.00
2018-09-22T05:06:51.416Z,20.00
2018-09-22T05:07:51.341Z,24.00
2018-09-22T05:08:51.266Z,28.00
2018-09-22T05:09:51.192Z,36.00
2018-09-22T05:10:51.116Z,40.00
2018-09-22T05:11:51.043Z,44.00
2018-09-22T05:12:50.966Z,48.00
2018-09-22T05:13:50.891Z,52.00
2018-09-22T05:14:50.813Z,60.00
2018-09-22T05:15:50.743Z,60.00
2018-09-22T05:16:50.665Z,64.00
2018-09-22T05:17:50.591Z,68.00
2018-09-22T05:18:50.516Z,68.00
2018-09-22T05:19:50.441Z,76.00
2018-09-22T05:20:50.365Z,80.00
2018-09-22T05:21:50.297Z,80.00
2018-09-22T05:22:50.218Z,88.00
2018-09-22T05:23:50.142Z,88.00
2018-09-22T05:24:50.110Z,100.00
2018-09-22T05:25:49.989Z,108.00
2018-09-22T05:26:49.922Z,120.00
2018-09-22T05:27:49.840Z,132.00
2018-09-22T05:28:49.765Z,144.00
2018-09-22T05:29:49.690Z,156.00
2018-09-22T05:30:49.613Z,168.00
2018-09-22T05:31:49.542Z,180.00
2018-09-22T05:32:49.473Z,200.00
2018-09-22T05:33:49.389Z,216.00
2018-09-22T05:34:49.308Z,240.00
2018-09-22T05:35:49.241Z,272.00
2018-09-22T05:36:49.166Z,296.00
2018-09-22T05:37:49.093Z,308.00
2018-09-22T05:38:49.022Z,312.00
2018-09-22T05:39:48.940Z,328.00
2018-09-22T05:40:48.864Z,344.00
2018-09-22T05:41:48.819Z,364.00
2018-09-22T05:42:48.714Z,372.00
2018-09-22T05:43:48.645Z,380.00
2018-09-22T05:44:48.561Z,388.00
2018-09-22T05:45:48.493Z,404.00
2018-09-22T05:46:48.420Z,424.00
2018-09-22T05:47:48.337Z,440.00
2018-09-22T05:48:48.265Z,468.00
2018-09-22T05:49:48.185Z,496.00
2018-09-22T05:50:48.112Z,532.00
2018-09-22T05:51:48.037Z,572.00
2018-09-22T05:52:47.961Z,616.00
2018-09-22T05:53:47.885Z,656.00
2018-09-22T05:54:47.811Z,656.00
2018-09-22T05:55:47.741Z,644.00
2018-09-22T05:56:47.661Z,640.00
2018-09-22T05:57:47.588Z,668.00
2018-09-22T05:58:47.514Z,700.00
2018-09-22T05:59:47.441Z,708.00
2018-09-22T06:00:47.364Z,720.00
2018-09-22T06:01:47.291Z,732.00
2018-09-22T06:02:47.211Z,728.00
2018-09-22T06:03:47.226Z,712.00
2018-09-22T06:04:47.061Z,700.00
2018-09-22T06:05:46.997Z,692.00
2018-09-22T06:06:46.910Z,696.00
2018-09-22T06:07:46.836Z,712.00
2018-09-22T06:08:46.760Z,744.00
2018-09-22T06:09:46.685Z,760.00
2018-09-22T06:10:46.614Z,780.00
2018-09-22T06:11:46.537Z,804.00
2018-09-22T06:12:46.463Z,836.00
2018-09-22T06:13:46.387Z,884.00
2018-09-22T06:14:46.312Z,928.00
2018-09-22T06:15:46.241Z,960.00
2018-09-22T06:16:46.160Z,1000.00
2018-09-22T06:17:46.088Z,1044.00
2018-09-22T06:18:46.013Z,1104.00
2018-09-22T06:19:45.936Z,1152.00
2018-09-22T06:20:45.860Z,1192.00
2018-09-22T06:21:45.785Z,1224.00
2018-09-22T06:22:45.715Z,1280.00
2018-09-22T06:23:45.637Z,1344.00
2018-09-22T06:24:45.562Z,1384.00
2018-09-22T06:25:45.487Z,1408.00
2018-09-22T06:26:45.412Z,1428.00
2018-09-22T06:27:45.337Z,1436.00
2018-09-22T06:28:45.327Z,1468.00
2018-09-22T06:29:45.188Z,1520.00
2018-09-22T06:30:45.119Z,1580.00
2018-09-22T06:31:45.037Z,1632.00
2018-09-22T06:32:44.964Z,1664.00
2018-09-22T06:33:44.887Z,1680.00
2018-09-22T06:34:44.813Z,1696.00
2018-09-22T06:35:44.741Z,1680.00
2018-09-22T06:36:44.662Z,1680.00
2018-09-22T06:37:44.588Z,1692.00
2018-09-22T06:38:44.513Z,1708.00
2018-09-22T06:39:44.434Z,1716.00
2018-09-22T06:40:44.361Z,1772.00
2018-09-22T06:41:44.290Z,1844.00
2018-09-22T06:42:44.219Z,1904.00
2018-09-22T06:43:44.141Z,1944.00
2018-09-22T06:44:44.065Z,1956.00
2018-09-22T06:45:43.991Z,1932.00
2018-09-22T06:46:43.916Z,1868.00
2018-09-22T06:47:43.842Z,1816.00
2018-09-22T06:48:43.764Z,1856.00
2018-09-22T06:49:43.693Z,1888.00
2018-09-22T06:50:43.615Z,1924.00
2018-09-22T06:51:43.541Z,1948.00
2018-09-22T06:52:43.466Z,1940.00
2018-09-22T06:53:43.393Z,1936.00
2018-09-22T06:54:43.332Z,1960.00
2018-09-22T06:55:43.253Z,2048.00
2018-09-22T06:56:43.167Z,2144.00
2018-09-22T06:57:43.094Z,2220.00
2018-09-22T06:58:43.018Z,2268.00
2018-09-22T06:59:42.946Z,2280.00
2018-09-22T07:00:42.872Z,2296.00
2018-09-22T07:01:42.796Z,2340.00
2018-09-22T07:02:42.721Z,2356.00
2018-09-22T07:03:42.649Z,2376.00
2018-09-22T07:04:42.573Z,2420.00
2018-09-22T07:05:42.495Z,2420.00
2018-09-22T07:06:42.421Z,2420.00
2018-09-22T07:07:42.345Z,2508.00
2018-09-22T07:08:42.273Z,2560.00
2018-09-22T07:09:42.198Z,2528.00
2018-09-22T07:10:42.122Z,2520.00
2018-09-22T07:11:42.054Z,2516.00
2018-09-22T07:12:41.973Z,2564.00
2018-09-22T07:13:41.914Z,2660.00
2018-09-22T07:14:41.830Z,2756.00
2018-09-22T07:15:41.751Z,2772.00
2018-09-22T07:16:41.677Z,2812.00
2018-09-22T07:17:41.602Z,2844.00
2018-09-22T07:18:41.529Z,2868.00
2018-09-22T07:19:41.454Z,2908.00
2018-09-22T07:20:41.379Z,2920.00
2018-09-22T07:21:41.305Z,2840.00
2018-09-22T07:22:41.229Z,2808.00
2018-09-22T07:23:41.158Z,2888.00
2018-09-22T07:24:41.080Z,2988.00
2018-09-22T07:25:41.010Z,3096.00
2018-09-22T07:26:40.940Z,3136.00
2018-09-22T07:27:40.858Z,3056.00
2018-09-22T07:28:40.785Z,2872.00
2018-09-22T07:29:40.709Z,2752.00
2018-09-22T07:30:40.673Z,2804.00
2018-09-22T07:31:40.563Z,2892.00
2018-09-22T07:32:40.482Z,3040.00
2018-09-22T07:33:40.413Z,3320.00
2018-09-22T07:34:40.337Z,3352.00
2018-09-22T07:35:40.266Z,3220.00
2018-09-22T07:36:40.189Z,3340.00
2018-09-22T07:37:40.116Z,3488.00
2018-09-22T07:38:40.041Z,3528.00
2018-09-22T07:39:39.965Z,3516.00
2018-09-22T07:40:39.890Z,3488.00
2018-09-22T07:41:39.816Z,3540.00
2018-09-22T07:42:39.743Z,3472.00
2018-09-22T07:43:39.671Z,3436.00
2018-09-22T07:44:39.594Z,3328.00
2018-09-22T07:45:39.521Z,3160.00
2018-09-22T07:46:39.447Z,3024.00
2018-09-22T07:47:39.373Z,2916.00
2018-09-22T07:48:39.296Z,2876.00
2018-09-22T07:49:39.223Z,2952.00
2018-09-22T07:50:39.152Z,3088.00
2018-09-22T07:51:39.075Z,3304.00
2018-09-22T07:52:38.999Z,3392.00
2018-09-22T07:53:38.927Z,3396.00
2018-09-22T07:54:38.856Z,3292.00
2018-09-22T07:55:38.779Z,3192.00
2018-09-22T07:56:38.708Z,3144.00
2018-09-22T07:57:38.631Z,3128.00
2018-09-22T07:58:38.561Z,3092.00
2018-09-22T07:59:38.480Z,3220.00
2018-09-22T08:00:38.408Z,3356.00
2018-09-22T08:01:38.344Z,3556.00
2018-09-22T08:02:38.265Z,3684.00
2018-09-22T08:03:38.184Z,3604.00
2018-09-22T08:04:38.114Z,3628.00
2018-09-22T08:05:38.036Z,3708.00
2018-09-22T08:06:37.964Z,3788.00
2018-09-22T08:07:37.890Z,3756.00
2018-09-22T08:08:37.814Z,3724.00
2018-09-22T08:09:37.743Z,3676.00
2018-09-22T08:10:37.675Z,3740.00
2018-09-22T08:11:37.636Z,3956.00
2018-09-22T08:12:37.519Z,3948.00
2018-09-22T08:13:37.446Z,3888.00
2018-09-22T08:14:37.375Z,3944.00
2018-09-22T08:15:37.303Z,4148.00
2018-09-22T08:16:37.226Z,4456.00
2018-09-22T08:17:37.151Z,4668.00
2018-09-22T08:18:37.076Z,4852.00
2018-09-22T08:19:37.003Z,4908.00
2018-09-22T08:20:36.938Z,5060.00
2018-09-22T08:21:36.857Z,5044.00
2018-09-22T08:22:36.784Z,5056.00
2018-09-22T08:23:36.708Z,5320.00
2018-09-22T08:24:36.636Z,4916.00
2018-09-22T08:25:36.562Z,4892.00
2018-09-22T08:26:36.488Z,4896.00
2018-09-22T08:27:36.415Z,4936.00
2018-09-22T08:28:36.343Z,5040.00
2018-09-22T08:29:36.267Z,5316.00
2018-09-22T08:30:36.197Z,5652.00
2018-09-22T08:31:36.118Z,5828.00
2018-09-22T08:32:36.048Z,5816.00
2018-09-22T08:33:35.974Z,5732.00
2018-09-22T08:34:35.902Z,5612.00
2018-09-22T08:35:35.827Z,5632.00
2018-09-22T08:36:36.040Z,5568.00
2018-09-22T08:37:35.682Z,5576.00
2018-09-22T08:38:35.607Z,5544.00
2018-09-22T08:39:35.534Z,5452.00
2018-09-22T08:40:35.460Z,5204.00
2018-09-22T08:41:35.387Z,5420.00
2018-09-22T08:42:35.316Z,5572.00
2018-09-22T08:43:35.242Z,5652.00
2018-09-22T08:44:35.175Z,5716.00
2018-09-22T08:45:35.095Z,5784.00
2018-09-22T08:46:35.022Z,5852.00
2018-09-22T08:47:34.950Z,5840.00
2018-09-22T08:48:34.879Z,5944.00
2018-09-22T08:49:34.828Z,6040.00
2018-09-22T08:50:34.732Z,5980.00
2018-09-22T08:51:34.660Z,5860.00
2018-09-22T08:52:34.584Z,5712.00
2018-09-22T08:53:34.512Z,5672.00
2018-09-22T08:54:34.437Z,5556.00
2018-09-22T08:55:34.366Z,5736.00
2018-09-22T08:56:34.291Z,6156.00
2018-09-22T08:57:34.222Z,6240.00
2018-09-22T08:58:34.149Z,5924.00
2018-09-22T08:59:34.080Z,5348.00
2018-09-22T09:00:34.056Z,4748.00
2018-09-22T09:01:33.933Z,4644.00
2018-09-22T09:02:33.858Z,4664.00
2018-09-22T09:03:33.785Z,4832.00
2018-09-22T09:04:33.713Z,5148.00
2018-09-22T09:05:33.640Z,5660.00
2018-09-22T09:06:33.568Z,5880.00
2018-09-22T09:07:33.498Z,6036.00
2018-09-22T09:08:33.422Z,5508.00
2018-09-22T09:09:33.350Z,5372.00
2018-09-22T09:10:33.276Z,4912.00
2018-09-22T09:11:33.247Z,4800.00
2018-09-22T09:12:33.129Z,6232.00
2018-09-22T09:13:33.064Z,6896.00
2018-09-22T09:14:33.027Z,6884.00
2018-09-22T09:15:32.914Z,6424.00
2018-09-22T09:16:32.889Z,6552.00
2018-09-22T09:17:32.768Z,6992.00
2018-09-22T09:18:32.704Z,6920.00
2018-09-22T09:19:32.621Z,7120.00
2018-09-22T09:20:32.606Z,7144.00
2018-09-22T09:21:32.477Z,6876.00
2018-09-22T09:22:32.406Z,6816.00
2018-09-22T09:23:32.332Z,6288.00
2018-09-22T09:24:32.259Z,6360.00
2018-09-22T09:25:32.185Z,6240.00
2018-09-22T09:26:32.114Z,6844.00
2018-09-22T09:27:32.095Z,7096.00
2018-09-22T09:28:31.969Z,7252.00
2018-09-22T09:29:31.897Z,6792.00
2018-09-22T09:30:31.821Z,6656.00
2018-09-22T09:31:31.755Z,7788.00
2018-09-22T09:32:31.680Z,7540.00
2018-09-22T09:33:31.612Z,7932.00
2018-09-22T09:34:31.533Z,7556.00
2018-09-22T09:35:31.463Z,7824.00
2018-09-22T09:36:31.391Z,9200.00
2018-09-22T09:37:31.320Z,8328.00
2018-09-22T09:38:31.250Z,9092.00
2018-09-22T09:39:31.175Z,9216.00
2018-09-22T09:40:31.100Z,8932.00
2018-09-22T09:41:31.028Z,9360.00
2018-09-22T09:42:30.959Z,9568.00
2018-09-22T09:43:30.891Z,9568.00
2018-09-22T09:44:30.815Z,9736.00
2018-09-22T09:45:30.743Z,8532.00
2018-09-22T09:46:30.670Z,9652.00
2018-09-22T09:47:30.598Z,9196.00
2018-09-22T09:48:30.529Z,8228.00
2018-09-22T09:49:30.455Z,8132.00
2018-09-22T09:50:30.383Z,8100.00
2018-09-22T09:51:30.329Z,8020.00
2018-09-22T09:52:30.240Z,7976.00
2018-09-22T09:53:30.167Z,8320.00
2018-09-22T09:54:30.137Z,8660.00
2018-09-22T09:55:30.026Z,8892.00
2018-09-22T09:56:29.958Z,9008.00
2018-09-22T09:57:29.887Z,9100.00
2018-09-22T09:58:29.811Z,8860.00
2018-09-22T09:59:29.743Z,8720.00
2018-09-22T10:00:29.668Z,8096.00
2018-09-22T10:01:29.597Z,7404.00
2018-09-22T10:02:29.530Z,6828.00
2018-09-22T10:03:29.453Z,6180.00
2018-09-22T10:04:29.435Z,6668.00
2018-09-22T10:05:29.317Z,7188.00
2018-09-22T10:06:29.248Z,6876.00
2018-09-22T10:07:29.174Z,5716.00
2018-09-22T10:08:29.098Z,5760.00
2018-09-22T10:09:29.034Z,6220.00
2018-09-22T10:10:28.954Z,6368.00
2018-09-22T10:11:28.882Z,5824.00
2018-09-22T10:12:28.811Z,6132.00
2018-09-22T10:13:28.740Z,5676.00
2018-09-22T10:14:28.670Z,5152.00
2018-09-22T10:15:28.597Z,4396.00
2018-09-22T10:16:28.525Z,4096.00
2018-09-22T10:17:28.453Z,4632.00
2018-09-22T10:18:28.384Z,4612.00
2018-09-22T10:19:28.310Z,4764.00
2018-09-22T10:20:28.243Z,4332.00
2018-09-22T10:21:28.167Z,4644.00
2018-09-22T10:22:28.099Z,5328.00
2018-09-22T10:23:28.023Z,5092.00
2018-09-22T10:24:27.951Z,5064.00
2018-09-22T10:25:27.876Z,4496.00
2018-09-22T10:26:27.814Z,3552.00
2018-09-22T10:27:27.736Z,3208.00
2018-09-22T10:28:27.713Z,3076.00
2018-09-22T10:29:27.593Z,2952.00
2018-09-22T10:30:27.520Z,2752.00
2018-09-22T10:31:27.449Z,2452.00
2018-09-22T10:32:27.377Z,2268.00
2018-09-22T10:33:27.305Z,2028.00
2018-09-22T10:34:27.234Z,1800.00
2018-09-22T10:35:27.160Z,1920.00
2018-09-22T10:36:27.091Z,2244.00
2018-09-22T10:37:27.017Z,2352.00
2018-09-22T10:38:26.945Z,3528.00
2018-09-22T10:39:26.873Z,4424.00
2018-09-22T10:40:26.801Z,4892.00
2018-09-22T10:41:26.729Z,5188.00
2018-09-22T10:42:26.663Z,4728.00
2018-09-22T10:43:26.585Z,5460.00
2018-09-22T10:44:26.512Z,4948.00
2018-09-22T10:45:26.439Z,4620.00
2018-09-22T10:46:26.368Z,4876.00
2018-09-22T10:47:26.297Z,4624.00
2018-09-22T10:48:26.229Z,4560.00
2018-09-22T10:49:26.154Z,4080.00
2018-09-22T10:50:26.080Z,3376.00
2018-09-22T10:51:26.010Z,3156.00
2018-09-22T10:52:25.986Z,3300.00
2018-09-22T10:53:25.864Z,3904.00
2018-09-22T10:54:25.791Z,5180.00
2018-09-22T10:55:25.719Z,7232.00
2018-09-22T10:56:25.648Z,8484.00
2018-09-22T10:57:25.574Z,9076.00
2018-09-22T10:58:25.503Z,9260.00
2018-09-22T10:59:25.431Z,9212.00
2018-09-22T11:00:25.360Z,9248.00
2018-09-22T11:01:25.287Z,9088.00
2018-09-22T11:02:25.215Z,8936.00
2018-09-22T11:03:25.214Z,8808.00
2018-09-22T11:04:25.072Z,9024.00
2018-09-22T11:05:25.000Z,8584.00
2018-09-22T11:06:24.928Z,8580.00
2018-09-22T11:07:24.858Z,8560.00
2018-09-22T11:08:24.789Z,8492.00
2018-09-22T11:09:24.717Z,7988.00
2018-09-22T11:10:24.642Z,7900.00
2018-09-22T11:11:24.604Z,7964.00
2018-09-22T11:12:24.498Z,8016.00
2018-09-22T11:13:24.430Z,7860.00
2018-09-22T11:14:24.354Z,7404.00
2018-09-22T11:15:24.284Z,7148.00
2018-09-22T11:16:24.209Z,7304.00
2018-09-22T11:17:24.140Z,6960.00
2018-09-22T11:18:24.070Z,6788.00
2018-09-22T11:19:23.995Z,6344.00
2018-09-22T11:20:23.932Z,6260.00
2018-09-22T11:21:23.854Z,6504.00
2018-09-22T11:22:23.786Z,6752.00
2018-09-22T11:23:23.710Z,6828.00
2018-09-22T11:24:23.638Z,7040.00
2018-09-22T11:25:23.567Z,6996.00
2018-09-22T11:26:23.498Z,6592.00
2018-09-22T11:27:23.424Z,6204.00
2018-09-22T11:28:23.356Z,6136.00
2018-09-22T11:29:23.280Z,6072.00
2018-09-22T11:30:23.209Z,5964.00
2018-09-22T11:31:23.135Z,5612.00
2018-09-22T11:32:23.068Z,5488.00
2018-09-22T11:33:22.995Z,5056.00
2018-09-22T11:34:22.925Z,4592.00
2018-09-22T11:35:22.852Z,4292.00
2018-09-22T11:36:22.780Z,4012.00
2018-09-22T11:37:22.708Z,3048.00
2018-09-22T11:38:22.656Z,2860.00
2018-09-22T11:39:22.574Z,3020.00
2018-09-22T11:40:22.491Z,2820.00
2018-09-22T11:41:22.423Z,2804.00
2018-09-22T11:42:22.350Z,2896.00
2018-09-22T11:43:22.281Z,3216.00
2018-09-22T11:44:22.207Z,3428.00
2018-09-22T11:45:22.135Z,3848.00
2018-09-22T11:46:22.106Z,4400.00
2018-09-22T11:47:21.995Z,4868.00
2018-09-22T11:48:21.921Z,5092.00
2018-09-22T11:49:21.851Z,5192.00
2018-09-22T11:50:21.781Z,5280.00
2018-09-22T11:51:21.706Z,5528.00
2018-09-22T11:52:21.638Z,5824.00
2018-09-22T11:53:21.564Z,6164.00
2018-09-22T11:54:21.489Z,6512.00
2018-09-22T11:55:21.421Z,6480.00
2018-09-22T11:56:21.385Z,6628.00
2018-09-22T11:57:21.274Z,6632.00
2018-09-22T11:58:21.202Z,6736.00
2018-09-22T11:59:21.130Z,6880.00
2018-09-22T12:00:21.059Z,6856.00
2018-09-22T12:01:20.986Z,6816.00
2018-09-22T12:02:20.914Z,7188.00
2018-09-22T12:03:20.840Z,7348.00
2018-09-22T12:04:20.772Z,7528.00
2018-09-22T12:05:20.700Z,7512.00
2018-09-22T12:06:20.636Z,6824.00
2018-09-22T12:07:20.554Z,5800.00
2018-09-22T12:08:20.484Z,5660.00
2018-09-22T12:09:20.417Z,5560.00
2018-09-22T12:10:20.338Z,5012.00
2018-09-22T12:11:20.270Z,4888.00
2018-09-22T12:12:20.197Z,4904.00
2018-09-22T12:13:20.125Z,4984.00
2018-09-22T12:14:20.054Z,4672.00
2018-09-22T12:15:19.989Z,4736.00
2018-09-22T12:16:19.912Z,4176.00
2018-09-22T12:17:19.840Z,3980.00
2018-09-22T12:18:19.766Z,4004.00
2018-09-22T12:19:19.699Z,2852.00
2018-09-22T12:20:19.621Z,2032.00
2018-09-22T12:21:19.590Z,1316.00
2018-09-22T12:22:19.481Z,948.00
2018-09-22T12:23:19.408Z,804.00
2018-09-22T12:24:19.338Z,772.00
2018-09-22T12:25:19.265Z,800.00
2018-09-22T12:26:19.193Z,952.00
2018-09-22T12:27:19.123Z,1196.00
2018-09-22T12:28:19.050Z,1360.00
2018-09-22T12:29:18.982Z,1080.00
2018-09-22T12:30:18.906Z,1092.00
2018-09-22T12:31:18.834Z,1332.00
2018-09-22T12:32:18.762Z,1576.00
2018-09-22T12:33:18.689Z,1716.00
2018-09-22T12:34:18.618Z,1712.00
2018-09-22T12:35:18.547Z,1540.00